createdAt,value
2023-01-31T00:01:42.196Z,100738.91
2023-01-31T00:04:14.039Z,100747.09
2023-01-31T00:06:51.076Z,100725.91
2023-01-31T00:09:23.169Z,100737.59
2023-01-31T00:11:54.736Z,100751.06
2023-01-31T00:14:26.677Z,100759.84
2023-01-31T00:16:58.172Z,100756.84
2023-01-31T00:19:30.030Z,100758.16
2023-01-31T00:22:01.559Z,100761.94
2023-01-31T00:24:33.459Z,100775.13
2023-01-31T00:27:05.068Z,100774.13
2023-01-31T00:29:37.691Z,100779.09
2023-01-31T00:32:09.413Z,100783.69
2023-01-31T00:34:41.216Z,100798.50
2023-01-31T00:37:12.787Z,100793.56
2023-01-31T00:39:44.508Z,100811.34
2023-01-31T00:42:16.025Z,100798.16
2023-01-31T00:44:47.839Z,100806.25
2023-01-31T00:47:19.365Z,100799.97
2023-01-31T00:49:50.910Z,100792.41
2023-01-31T00:52:22.423Z,100794.06
2023-01-31T00:54:54.176Z,100806.06
2023-01-31T00:57:25.684Z,100807.25
2023-01-31T00:59:57.529Z,100812.16
2023-01-31T01:02:29.034Z,100812.34
2023-01-31T01:05:00.961Z,100819.25
2023-01-31T01:07:33.019Z,100822.19
2023-01-31T01:10:04.577Z,100824.84
2023-01-31T01:12:36.459Z,100832.22
2023-01-31T01:15:08.297Z,100832.53
2023-01-31T01:17:39.853Z,100838.28
2023-01-31T01:20:11.587Z,100834.19
2023-01-31T01:22:43.115Z,100844.53
2023-01-31T01:25:15.057Z,100843.88
2023-01-31T01:27:46.585Z,100844.19
2023-01-31T01:30:18.256Z,100843.03
2023-01-31T01:32:49.793Z,100844.66
2023-01-31T01:35:21.941Z,100851.59
2023-01-31T01:37:53.599Z,100850.59
2023-01-31T01:40:25.473Z,100851.91
2023-01-31T01:42:56.983Z,100860.66
2023-01-31T01:45:28.517Z,100859.81
2023-01-31T01:48:00.029Z,100863.75
2023-01-31T01:50:32.220Z,100865.56
2023-01-31T01:53:03.743Z,100877.63
2023-01-31T01:55:36.206Z,100887.34
2023-01-31T01:58:07.743Z,100893.94
2023-01-31T02:00:39.334Z,100895.56
2023-01-31T02:03:10.876Z,100909.56
2023-01-31T02:05:42.599Z,100902.78
2023-01-31T02:08:14.179Z,100921.72
2023-01-31T02:10:46.009Z,100905.44
2023-01-31T02:13:18.512Z,100912.31
2023-01-31T02:15:50.486Z,100923.03
2023-01-31T02:18:22.029Z,100917.94
2023-01-31T02:20:53.555Z,100915.28
2023-01-31T02:23:25.075Z,100929.28
2023-01-31T02:25:56.901Z,100930.63
2023-01-31T02:28:28.405Z,100930.78
2023-01-31T02:31:00.307Z,100935.41
2023-01-31T02:33:31.866Z,100941.31
2023-01-31T02:36:03.791Z,100939.69
2023-01-31T02:38:35.304Z,100941.66
2023-01-31T02:41:07.251Z,100966.72
2023-01-31T02:43:58.749Z,100960.13
2023-01-31T02:46:30.595Z,100948.09
2023-01-31T02:49:02.090Z,100936.09
2023-01-31T02:51:33.960Z,100942.19
2023-01-31T02:54:08.077Z,100932.34
2023-01-31T02:56:39.579Z,100933.31
2023-01-31T02:59:11.340Z,100936.44
2023-01-31T03:01:42.881Z,100940.22
2023-01-31T03:04:14.955Z,100932.47
2023-01-31T03:06:54.373Z,100928.53
2023-01-31T03:09:31.917Z,100930.84
2023-01-31T03:12:03.556Z,100925.59
2023-01-31T03:14:35.424Z,100930.34
2023-01-31T03:17:25.847Z,100931.00
2023-01-31T03:19:57.723Z,100940.22
2023-01-31T03:22:29.232Z,100940.22
2023-01-31T03:25:01.117Z,100937.88
2023-01-31T03:27:33.646Z,100946.25
2023-01-31T03:30:05.181Z,100943.13
2023-01-31T03:32:36.691Z,100945.09
2023-01-31T03:35:08.529Z,100947.59
2023-01-31T03:37:40.055Z,100962.38
2023-01-31T03:40:11.975Z,100963.22
2023-01-31T03:42:43.520Z,100964.84
2023-01-31T03:45:15.842Z,100965.50
2023-01-31T03:47:47.422Z,100979.81
2023-01-31T03:50:19.247Z,100987.03
2023-01-31T03:52:50.798Z,100974.88
2023-01-31T03:55:23.032Z,100990.16
2023-01-31T03:57:54.559Z,100983.09
2023-01-31T04:00:26.380Z,100985.22
2023-01-31T04:02:57.952Z,100990.63
2023-01-31T04:05:32.470Z,100985.69
2023-01-31T04:08:04.077Z,100994.72
2023-01-31T04:10:35.828Z,101020.38
2023-01-31T04:13:07.341Z,100997.81
2023-01-31T04:15:39.551Z,101011.66
2023-01-31T04:18:11.157Z,101015.56
2023-01-31T04:20:42.967Z,101010.47
2023-01-31T04:23:14.477Z,101007.16
2023-01-31T04:25:46.058Z,101007.00
2023-01-31T04:28:17.713Z,100999.59
2023-01-31T04:30:49.649Z,101002.38
2023-01-31T04:33:21.189Z,101007.31
2023-01-31T04:35:53.044Z,101006.00
2023-01-31T04:38:24.550Z,101012.22
2023-01-31T04:40:56.455Z,101007.13
2023-01-31T04:43:27.994Z,101019.63
2023-01-31T04:45:59.617Z,101024.56
2023-01-31T04:48:31.705Z,101022.09
2023-01-31T04:51:03.650Z,101020.75
2023-01-31T04:53:35.212Z,101025.38
2023-01-31T04:56:07.302Z,101024.41
2023-01-31T04:58:39.149Z,101032.13
2023-01-31T05:01:10.906Z,101037.06
2023-01-31T05:03:42.442Z,101033.69
2023-01-31T05:06:14.463Z,101028.25
2023-01-31T05:08:45.983Z,101039.63
2023-01-31T05:11:17.531Z,101043.72
2023-01-31T05:13:49.372Z,101038.97
2023-01-31T05:16:21.278Z,101035.69
2023-01-31T05:18:52.919Z,101036.50
2023-01-31T05:21:25.372Z,101051.16
2023-01-31T05:23:56.886Z,101041.63
2023-01-31T05:26:28.660Z,101049.88
2023-01-31T05:29:02.495Z,101047.41
2023-01-31T05:31:35.079Z,101051.03
2023-01-31T05:34:07.355Z,101049.56
2023-01-31T05:36:39.185Z,101055.00
2023-01-31T05:39:10.695Z,101056.50
2023-01-31T05:41:42.313Z,101054.53
2023-01-31T05:44:14.419Z,101054.91
2023-01-31T05:46:46.486Z,101060.84
2023-01-31T05:49:17.994Z,101070.72
2023-01-31T05:51:49.725Z,101065.13
2023-01-31T05:54:21.222Z,101060.53
2023-01-31T05:56:53.139Z,101068.44
2023-01-31T05:59:26.357Z,101070.09
2023-01-31T06:01:58.298Z,101070.91
2023-01-31T06:04:29.914Z,101063.69
2023-01-31T06:07:01.709Z,101066.03
2023-01-31T06:09:33.310Z,101057.28
2023-01-31T06:12:05.185Z,101071.28
2023-01-31T06:14:36.706Z,101072.94
2023-01-31T06:17:08.605Z,101075.75
2023-01-31T06:19:40.100Z,101074.44
2023-01-31T06:22:12.156Z,101080.03
2023-01-31T06:24:43.775Z,101082.66
2023-01-31T06:27:15.596Z,101094.69
2023-01-31T06:29:47.106Z,101093.03
2023-01-31T06:32:18.652Z,101091.06
2023-01-31T06:34:50.159Z,101099.47
2023-01-31T06:37:21.703Z,101103.41
2023-01-31T06:39:53.274Z,101097.31
2023-01-31T06:42:24.916Z,101092.88
2023-01-31T06:44:56.445Z,101099.31
2023-01-31T06:47:28.008Z,101098.16
2023-01-31T06:50:00.101Z,101093.88
2023-01-31T06:52:32.002Z,101094.03
2023-01-31T06:55:03.524Z,101092.22
2023-01-31T06:57:35.043Z,101098.47
2023-01-31T07:00:06.652Z,101091.06
2023-01-31T07:02:38.493Z,101086.28
2023-01-31T07:05:09.995Z,101097.00
2023-01-31T07:07:41.559Z,101099.81
2023-01-31T07:10:13.123Z,101105.41
2023-01-31T07:12:44.631Z,101106.72
2023-01-31T07:15:16.228Z,101100.47
2023-01-31T07:17:48.163Z,101101.47
2023-01-31T07:20:19.738Z,101096.72
2023-01-31T07:22:51.244Z,101080.88
2023-01-31T07:25:22.809Z,101070.50
2023-01-31T07:27:54.449Z,101069.84
2023-01-31T07:30:26.389Z,101083.34
2023-01-31T07:32:57.912Z,101093.25
2023-01-31T07:35:30.103Z,100841.28
2023-01-31T07:38:01.695Z,101097.19
2023-01-31T07:40:33.603Z,101085.16
2023-01-31T07:43:05.108Z,101093.56
2023-01-31T07:45:37.251Z,101091.75
2023-01-31T07:48:08.941Z,101099.81
2023-01-31T07:50:40.498Z,101077.75
2023-01-31T07:53:12.003Z,101089.09
2023-01-31T07:55:47.816Z,101093.72
2023-01-31T07:58:19.375Z,101082.00
2023-01-31T08:01:09.954Z,101085.19
2023-01-31T08:03:41.602Z,101080.22
2023-01-31T08:06:13.142Z,101083.84
2023-01-31T08:08:44.657Z,101078.56
2023-01-31T08:11:16.238Z,101070.00
2023-01-31T08:13:47.736Z,101079.06
2023-01-31T08:16:20.528Z,101080.66
2023-01-31T08:18:52.042Z,101074.44
2023-01-31T08:21:23.766Z,101072.78
2023-01-31T08:23:55.256Z,101076.09
2023-01-31T08:26:27.160Z,101070.66
2023-01-31T08:29:00.048Z,101079.25
2023-01-31T08:31:31.700Z,101070.97
2023-01-31T08:34:03.373Z,101061.59
2023-01-31T08:36:36.116Z,101071.31
2023-01-31T08:39:07.814Z,101062.91
2023-01-31T08:41:39.961Z,101059.28
2023-01-31T08:44:11.507Z,101046.25
2023-01-31T08:46:43.978Z,101054.16
2023-01-31T08:49:15.579Z,101039.00
2023-01-31T08:51:47.393Z,101057.63
2023-01-31T08:54:37.916Z,101050.38
2023-01-31T08:57:11.577Z,101055.78
2023-01-31T09:02:32.642Z,101049.84
2023-01-31T09:05:22.813Z,101048.66
2023-01-31T09:07:59.969Z,101033.03
2023-01-31T09:10:31.515Z,101032.34
2023-01-31T09:13:03.022Z,101042.06
2023-01-31T09:15:34.641Z,101035.63
2023-01-31T09:18:06.460Z,101031.34
2023-01-31T09:20:38.508Z,101029.19
2023-01-31T09:23:10.137Z,101021.22
2023-01-31T09:25:47.466Z,101027.81
2023-01-31T09:28:19.600Z,101024.78
2023-01-31T09:30:53.548Z,101023.22
2023-01-31T09:33:25.343Z,101022.88
2023-01-31T09:35:57.534Z,101020.75
2023-01-31T09:38:29.726Z,101020.88
2023-01-31T09:41:01.263Z,101010.03
2023-01-31T09:43:33.535Z,101009.75
2023-01-31T09:46:05.158Z,101010.81
2023-01-31T09:48:37.032Z,101004.31
2023-01-31T09:51:08.519Z,101004.09
2023-01-31T09:53:41.451Z,100991.50
2023-01-31T09:56:13.025Z,100990.25
2023-01-31T09:58:44.533Z,100983.78
2023-01-31T10:01:16.065Z,100993.75
2023-01-31T10:03:47.587Z,100987.06
2023-01-31T10:06:19.126Z,100972.25
2023-01-31T10:08:51.295Z,100979.38
2023-01-31T10:11:23.367Z,100973.25
2023-01-31T10:13:55.594Z,100973.72
2023-01-31T10:16:27.990Z,100962.72
2023-01-31T10:18:59.559Z,100962.97
2023-01-31T10:21:31.452Z,100950.19
2023-01-31T10:24:03.065Z,100947.47
2023-01-31T10:26:35.017Z,100951.56
2023-01-31T10:29:06.794Z,100947.00
2023-01-31T10:31:38.539Z,100945.69
2023-01-31T10:34:10.116Z,100931.88
2023-01-31T10:36:42.185Z,100930.88
2023-01-31T10:39:13.739Z,100913.09
2023-01-31T10:41:45.329Z,100915.03
2023-01-31T10:44:16.929Z,100921.41
2023-01-31T10:46:48.696Z,100919.25
2023-01-31T10:49:20.177Z,100917.28
2023-01-31T10:51:51.714Z,100912.31
2023-01-31T10:54:23.256Z,100916.19
2023-01-31T10:56:55.247Z,100905.72
2023-01-31T10:59:26.764Z,100901.66
2023-01-31T11:01:59.111Z,100895.72
2023-01-31T11:04:30.704Z,100876.28
2023-01-31T11:07:02.579Z,100878.97
2023-01-31T11:09:34.245Z,100873.31
2023-01-31T11:12:06.295Z,100862.13
2023-01-31T11:14:37.855Z,100862.97
2023-01-31T11:17:09.902Z,100855.72
2023-01-31T11:19:41.424Z,100850.59
2023-01-31T11:22:12.949Z,100852.16
2023-01-31T11:24:44.442Z,100846.97
2023-01-31T11:27:15.926Z,100832.38
2023-01-31T11:29:47.440Z,100817.09
2023-01-31T11:32:20.970Z,100815.72
2023-01-31T11:34:52.521Z,100807.34
2023-01-31T11:37:24.357Z,100812.88
2023-01-31T11:39:55.854Z,100807.44
2023-01-31T11:42:27.835Z,100811.53
2023-01-31T11:45:02.039Z,100795.22
2023-01-31T11:47:33.724Z,100795.50
2023-01-31T11:50:05.349Z,100783.09
2023-01-31T11:52:37.193Z,100772.34
2023-01-31T11:55:08.715Z,100767.31
2023-01-31T11:57:40.904Z,100754.56
2023-01-31T12:00:12.392Z,100754.50
2023-01-31T12:02:44.258Z,100748.56
2023-01-31T12:05:15.866Z,100744.09
2023-01-31T12:07:47.533Z,100732.81
2023-01-31T12:10:19.395Z,100717.22
2023-01-31T12:12:51.070Z,100710.66
2023-01-31T12:15:22.749Z,100693.34
2023-01-31T12:17:54.363Z,100694.34
2023-01-31T12:20:28.612Z,100692.00
2023-01-31T12:23:01.113Z,100683.34
2023-01-31T12:25:32.605Z,100688.25
2023-01-31T12:28:04.204Z,100686.53
2023-01-31T12:30:35.786Z,100678.75
2023-01-31T12:33:07.672Z,100666.59
2023-01-31T12:35:39.156Z,100665.09
2023-01-31T12:38:10.956Z,100667.94
2023-01-31T12:40:42.461Z,100661.59
2023-01-31T12:43:14.105Z,100649.91
2023-01-31T12:45:45.736Z,100636.34
2023-01-31T12:48:17.276Z,100642.16
2023-01-31T12:50:49.238Z,100644.81
2023-01-31T12:53:21.002Z,100648.25
2023-01-31T12:55:52.615Z,100637.69
2023-01-31T12:58:24.340Z,100628.13
2023-01-31T13:00:56.751Z,100617.28
2023-01-31T13:03:28.682Z,100613.81
2023-01-31T13:06:00.208Z,100614.06
2023-01-31T13:08:33.154Z,100599.06
2023-01-31T13:11:04.754Z,100608.06
2023-01-31T13:13:36.513Z,100592.56
2023-01-31T13:16:08.033Z,100600.19
2023-01-31T13:18:39.539Z,100602.09
2023-01-31T13:21:11.266Z,100601.41
2023-01-31T13:23:43.036Z,100596.13
2023-01-31T13:26:14.958Z,100593.53
2023-01-31T13:28:46.569Z,100592.56
2023-01-31T13:31:18.277Z,100587.63
2023-01-31T13:33:50.041Z,100579.50
2023-01-31T13:36:21.680Z,100584.06
2023-01-31T13:38:53.469Z,100582.41
2023-01-31T13:41:25.050Z,100588.44
2023-01-31T13:43:57.902Z,100579.97
2023-01-31T13:46:29.444Z,100579.31
2023-01-31T13:49:01.251Z,100588.72
2023-01-31T13:51:32.787Z,100575.97
2023-01-31T13:54:04.684Z,100578.88
2023-01-31T13:56:36.199Z,100565.06
2023-01-31T13:59:08.452Z,100568.88
2023-01-31T14:01:40.148Z,100562.69
2023-01-31T14:04:14.960Z,100566.50
2023-01-31T14:06:46.542Z,100571.69
2023-01-31T14:09:18.206Z,100574.63
2023-01-31T14:11:49.688Z,100570.38
2023-01-31T14:14:21.272Z,100557.41
2023-01-31T14:16:53.380Z,100570.78
2023-01-31T14:19:25.054Z,100564.44
2023-01-31T14:21:58.081Z,100563.09
2023-01-31T14:24:29.870Z,100568.16
2023-01-31T14:27:01.389Z,100554.53
2023-01-31T14:29:33.456Z,100552.00
2023-01-31T14:32:05.153Z,100543.72
2023-01-31T14:34:36.727Z,100541.78
2023-01-31T14:37:08.347Z,100537.31
2023-01-31T14:39:42.025Z,100537.78
2023-01-31T14:42:13.496Z,100544.91
2023-01-31T14:44:45.183Z,100535.25
2023-01-31T14:47:16.749Z,100523.25
2023-01-31T14:49:48.313Z,100519.03
2023-01-31T14:52:19.874Z,100524.13
2023-01-31T14:54:51.695Z,100520.50
2023-01-31T14:57:23.188Z,100522.50
2023-01-31T14:59:54.918Z,100529.78
2023-01-31T15:02:26.526Z,100521.59
2023-01-31T15:04:58.373Z,100511.13
2023-01-31T15:07:29.841Z,100518.50
2023-01-31T15:10:01.399Z,100508.38
2023-01-31T15:12:32.996Z,100507.19
2023-01-31T15:15:05.485Z,100505.56
2023-01-31T15:17:40.449Z,100517.38
2023-01-31T15:20:12.253Z,100507.47
2023-01-31T15:22:43.789Z,100502.38
2023-01-31T15:25:15.644Z,100233.91
2023-01-31T15:27:47.524Z,100496.78
2023-01-31T15:30:19.422Z,100493.00
2023-01-31T15:32:50.982Z,100496.44
2023-01-31T15:35:23.186Z,100487.34
2023-01-31T15:37:54.893Z,100489.50
2023-01-31T15:40:28.883Z,100502.38
2023-01-31T15:43:00.388Z,100497.72
2023-01-31T15:45:32.266Z,100503.63
2023-01-31T15:48:03.879Z,100501.00
2023-01-31T15:50:35.377Z,100511.88
2023-01-31T15:53:06.916Z,100505.91
2023-01-31T15:55:38.795Z,100493.06
2023-01-31T15:58:10.274Z,100493.06
2023-01-31T16:00:42.509Z,100485.41
2023-01-31T16:03:13.980Z,100470.56
2023-01-31T16:05:45.753Z,100466.53
2023-01-31T16:08:17.279Z,100488.47
2023-01-31T16:10:48.827Z,100488.31
2023-01-31T16:13:21.820Z,100484.47
2023-01-31T16:15:53.343Z,100475.16
2023-01-31T16:18:25.025Z,100482.44
2023-01-31T16:20:57.747Z,100488.56
2023-01-31T16:23:29.635Z,100486.16
2023-01-31T16:26:01.162Z,100491.06
2023-01-31T16:28:32.672Z,100489.44
2023-01-31T16:31:04.346Z,100488.25
2023-01-31T16:33:36.231Z,100501.53
2023-01-31T16:36:13.920Z,100507.16
2023-01-31T16:38:46.868Z,100510.91
2023-01-31T16:41:18.346Z,100511.09
2023-01-31T16:43:50.131Z,100515.38
2023-01-31T16:46:21.761Z,100509.34
2023-01-31T16:48:53.647Z,100498.41
2023-01-31T16:51:25.758Z,100487.19
2023-01-31T16:53:57.460Z,100506.31
2023-01-31T16:56:28.953Z,100492.16
2023-01-31T16:59:00.775Z,100484.69
2023-01-31T17:01:32.370Z,100478.75
2023-01-31T17:04:04.258Z,100469.34
2023-01-31T17:06:35.773Z,100463.66
2023-01-31T17:09:07.666Z,100474.25
2023-01-31T17:11:43.192Z,100473.84
2023-01-31T17:14:15.317Z,100453.28
2023-01-31T17:16:47.117Z,100478.75
2023-01-31T17:19:18.626Z,100482.41
2023-01-31T17:21:50.333Z,100467.75
2023-01-31T17:24:24.944Z,100469.38
2023-01-31T17:26:56.571Z,100461.28
2023-01-31T17:29:28.433Z,100458.19
2023-01-31T17:32:01.341Z,100457.00
2023-01-31T17:34:33.654Z,100449.88
2023-01-31T17:37:05.137Z,100446.25
2023-01-31T17:39:37.239Z,100438.88
2023-01-31T17:42:08.765Z,100435.66
2023-01-31T17:44:40.278Z,100429.94
2023-01-31T17:47:11.823Z,100412.47
2023-01-31T17:49:45.181Z,100414.97
2023-01-31T17:52:16.852Z,100421.06
2023-01-31T17:54:49.059Z,100426.16
2023-01-31T17:57:20.614Z,100413.94
2023-01-31T17:59:52.373Z,100394.25
2023-01-31T18:02:23.908Z,100375.53
2023-01-31T18:04:55.861Z,100356.97
2023-01-31T18:07:27.396Z,100350.31
2023-01-31T18:09:59.284Z,100365.28
2023-01-31T18:12:30.845Z,100353.09
2023-01-31T18:15:02.705Z,100370.81
2023-01-31T18:17:34.192Z,100371.44
2023-01-31T18:20:05.759Z,100385.50
2023-01-31T18:22:37.349Z,100370.28
2023-01-31T18:25:09.209Z,100372.72
2023-01-31T18:27:40.768Z,100361.56
2023-01-31T18:30:12.736Z,100377.50
2023-01-31T18:32:44.221Z,100379.56
2023-01-31T18:35:16.284Z,100373.28
2023-01-31T18:37:48.694Z,100372.50
2023-01-31T18:40:20.519Z,100349.31
2023-01-31T18:42:52.075Z,100348.94
2023-01-31T18:45:24.376Z,100353.00
2023-01-31T18:47:56.092Z,100356.69
2023-01-31T18:50:29.507Z,100365.25
2023-01-31T18:53:02.457Z,100346.13
2023-01-31T18:55:34.423Z,100344.91
2023-01-31T18:58:06.014Z,100343.50
2023-01-31T19:00:37.541Z,100342.31
2023-01-31T19:03:09.070Z,100349.03
2023-01-31T19:05:40.926Z,100335.22
2023-01-31T19:08:12.426Z,100342.38
2023-01-31T19:10:44.206Z,100354.59
2023-01-31T19:13:15.698Z,100361.09
2023-01-31T19:15:47.568Z,100347.47
2023-01-31T19:18:19.101Z,100345.84
2023-01-31T19:20:50.895Z,100333.63
2023-01-31T19:23:22.449Z,100346.28
2023-01-31T19:25:54.356Z,100342.81
2023-01-31T19:28:26.853Z,100344.28
2023-01-31T19:30:58.780Z,100323.91
2023-01-31T19:33:30.327Z,100311.06
2023-01-31T19:36:02.204Z,100308.41
2023-01-31T19:38:34.041Z,100346.50
2023-01-31T19:41:05.864Z,100309.69
2023-01-31T19:43:37.404Z,100394.38
2023-01-31T19:46:09.966Z,100422.22
2023-01-31T19:48:41.483Z,100417.06
2023-01-31T19:51:13.333Z,100423.53
2023-01-31T19:53:45.354Z,100405.50
2023-01-31T19:56:17.369Z,100395.41
2023-01-31T19:58:48.934Z,100408.22
2023-01-31T20:01:20.878Z,100405.22
2023-01-31T20:03:52.455Z,100413.41
2023-01-31T20:06:25.903Z,100411.88
2023-01-31T20:08:57.526Z,100419.41
2023-01-31T20:11:29.382Z,100434.34
2023-01-31T20:14:00.929Z,100406.28
2023-01-31T20:16:32.880Z,100424.16
2023-01-31T20:19:06.467Z,100432.91
2023-01-31T20:21:39.341Z,100407.34
2023-01-31T20:24:11.317Z,100410.59
2023-01-31T20:26:43.234Z,100409.59
2023-01-31T20:29:14.840Z,100413.25
2023-01-31T20:31:46.787Z,100428.69
2023-01-31T20:34:18.394Z,100435.78
2023-01-31T20:36:50.397Z,100450.25
2023-01-31T20:39:21.965Z,100441.19
2023-01-31T20:41:53.798Z,100447.91
2023-01-31T20:44:25.382Z,100460.09
2023-01-31T20:46:57.060Z,100457.28
2023-01-31T20:49:28.567Z,100469.47
2023-01-31T20:52:00.611Z,100468.38
2023-01-31T20:54:32.572Z,100464.84
2023-01-31T20:57:04.163Z,100458.91
2023-01-31T20:59:35.672Z,100468.19
2023-01-31T21:02:07.646Z,100475.84
2023-01-31T21:04:39.164Z,100477.22
2023-01-31T21:07:11.106Z,100478.16
2023-01-31T21:09:42.627Z,100490.84
2023-01-31T21:12:15.064Z,100474.09
2023-01-31T21:14:46.572Z,100480.75
2023-01-31T21:17:20.730Z,100498.38
2023-01-31T21:19:54.460Z,100495.75
2023-01-31T21:22:25.964Z,100494.38
2023-01-31T21:24:57.720Z,100491.19
2023-01-31T21:27:29.350Z,100494.91
2023-01-31T21:30:00.974Z,100491.56
2023-01-31T21:32:32.496Z,100492.84
2023-01-31T21:35:04.312Z,100496.75
2023-01-31T21:37:35.898Z,100498.19
2023-01-31T21:40:07.665Z,100505.13
2023-01-31T21:42:42.614Z,100506.00
2023-01-31T21:45:14.725Z,100496.28
2023-01-31T21:48:09.524Z,100495.91
2023-01-31T21:50:41.412Z,100488.09
2023-01-31T21:53:12.918Z,100473.44
2023-01-31T21:55:44.799Z,100497.47
2023-01-31T21:58:16.386Z,100524.66
2023-01-31T22:00:48.007Z,100414.28
2023-01-31T22:03:19.529Z,100523.50
2023-01-31T22:05:51.403Z,100528.56
2023-01-31T22:08:22.943Z,100529.13
2023-01-31T22:10:54.668Z,100513.00
2023-01-31T22:13:26.210Z,100521.16
2023-01-31T22:15:58.052Z,100508.06
2023-01-31T22:18:29.752Z,100510.59
2023-01-31T22:21:01.825Z,100517.41
2023-01-31T22:23:33.425Z,100512.81
2023-01-31T22:26:05.426Z,100517.81
2023-01-31T22:28:36.941Z,100489.53
2023-01-31T22:31:08.847Z,100499.66
2023-01-31T22:33:40.419Z,100501.59
2023-01-31T22:36:12.315Z,100498.31
2023-01-31T22:38:44.092Z,100503.59
2023-01-31T22:41:17.615Z,100499.47
2023-01-31T22:43:50.526Z,100502.59
2023-01-31T22:46:22.446Z,100502.22
2023-01-31T22:48:54.016Z,100498.97
2023-01-31T22:51:26.038Z,100498.69
2023-01-31T22:53:57.603Z,100497.34
2023-01-31T22:56:29.550Z,100508.97
2023-01-31T22:59:01.090Z,100506.53
2023-01-31T23:01:33.002Z,100508.97
2023-01-31T23:04:04.554Z,100508.97
2023-01-31T23:06:37.879Z,100501.72
2023-01-31T23:09:09.479Z,100501.16
2023-01-31T23:11:41.335Z,100517.44
2023-01-31T23:14:12.847Z,100521.34
2023-01-31T23:17:03.344Z,100506.22
2023-01-31T23:19:34.933Z,100509.19
2023-01-31T23:22:06.832Z,100509.53
2023-01-31T23:24:38.358Z,100519.09
2023-01-31T23:27:10.052Z,100515.41
2023-01-31T23:29:41.634Z,100516.31
2023-01-31T23:32:13.562Z,100512.56
2023-01-31T23:34:45.088Z,100509.47
2023-01-31T23:37:17.154Z,100490.47
2023-01-31T23:39:49.122Z,100507.19
2023-01-31T23:42:21.049Z,100496.41
2023-01-31T23:44:52.602Z,100491.47
2023-01-31T23:47:24.279Z,100502.84
2023-01-31T23:49:55.838Z,100505.03
2023-01-31T23:52:27.506Z,100491.56
2023-01-31T23:54:59.050Z,100492.94
2023-01-31T23:57:30.870Z,100498.56
